UAL862 KICT-KMSY
Flight info
| Callsign | UAL862 |
|---|---|
| Flight time | 1h 36m |
| Altitude | 37000 |
| Route | IRW J20 EIC AEX LSU AWDAD1 |
| Aircraft | A21N/M-SDE3FGHIRWY/LB1 |
Departure
| Time | 2026-04-22 23:54 |
|---|---|
| Airport | Wichita Dwight D. Eisenhower National Airport (KICT) |
Arrival
| Time | 2026-04-23 01:31 |
|---|---|
| Airport | Louis Armstrong New Orleans International Airport (KMSY) |
| Time | Latitude | Longitude | Altitude | Speed | Heading |
|---|---|---|---|---|---|
| 2026-04-22 23:39 | 37.65346 | -97.43208 | 1329 ft | 0 kts | 60° |
| 2026-04-22 23:48 | 37.65341 | -97.43219 | 1329 ft | 2 kts | 59° |
| 2026-04-22 23:48 | 37.65334 | -97.43235 | 1329 ft | 2 kts | 59° |
| 2026-04-22 23:48 | 37.65328 | -97.43249 | 1329 ft | 0 kts | 59° |
| 2026-04-22 23:49 | 37.65320 | -97.43262 | 1329 ft | 2 kts | 36° |
| 2026-04-22 23:49 | 37.65306 | -97.43269 | 1329 ft | 2 kts | 9° |
| 2026-04-22 23:49 | 37.65292 | -97.43269 | 1329 ft | 2 kts | 342° |
| 2026-04-22 23:49 | 37.65284 | -97.43265 | 1329 ft | 1 kts | 326° |
| 2026-04-22 23:50 | 37.65280 | -97.43262 | 1329 ft | 0 kts | 329° |
| 2026-04-22 23:51 | 37.65289 | -97.43269 | 1329 ft | 5 kts | 327° |
| 2026-04-22 23:51 | 37.65325 | -97.43361 | 1330 ft | 14 kts | 289° |
| 2026-04-22 23:51 | 37.65387 | -97.43443 | 1331 ft | 13 kts | 327° |
| 2026-04-22 23:52 | 37.65468 | -97.43504 | 1332 ft | 13 kts | 333° |
| 2026-04-22 23:52 | 37.65571 | -97.43507 | 1332 ft | 17 kts | 16° |
| 2026-04-22 23:52 | 37.65710 | -97.43445 | 1332 ft | 24 kts | 20° |
| 2026-04-22 23:52 | 37.65866 | -97.43373 | 1332 ft | 23 kts | 20° |
| 2026-04-22 23:53 | 37.66019 | -97.43302 | 1332 ft | 23 kts | 20° |
| 2026-04-22 23:53 | 37.66131 | -97.43319 | 1332 ft | 15 kts | 308° |
| 2026-04-22 23:53 | 37.66110 | -97.43414 | 1332 ft | 11 kts | 206° |
| 2026-04-22 23:53 | 37.66015 | -97.43456 | 1332 ft | 31 kts | 197° |
| 2026-04-22 23:54 | 37.65579 | -97.43649 | 1333 ft | 99 kts | 202° |
| 2026-04-22 23:54 | 37.64746 | -97.44031 | 1328 ft | 153 kts | 200° |
| 2026-04-22 23:54 | 37.63708 | -97.44544 | 1773 ft | 162 kts | 197° |
| 2026-04-22 23:54 | 37.62664 | -97.44994 | 2462 ft | 161 kts | 197° |
| 2026-04-22 23:55 | 37.61603 | -97.45294 | 3185 ft | 157 kts | 184° |
| 2026-04-22 23:55 | 37.60475 | -97.45362 | 3632 ft | 170 kts | 181° |
| 2026-04-22 23:55 | 37.59228 | -97.45411 | 4018 ft | 187 kts | 182° |
| 2026-04-22 23:55 | 37.57882 | -97.45476 | 4385 ft | 205 kts | 183° |
| 2026-04-22 23:56 | 37.56361 | -97.45563 | 4713 ft | 227 kts | 184° |
| 2026-04-22 23:56 | 37.54735 | -97.45666 | 5181 ft | 243 kts | 184° |
| 2026-04-22 23:56 | 37.53030 | -97.45778 | 5873 ft | 250 kts | 185° |
| 2026-04-22 23:56 | 37.51291 | -97.45896 | 6615 ft | 254 kts | 185° |
| 2026-04-22 23:57 | 37.49509 | -97.46021 | 7327 ft | 259 kts | 186° |
| 2026-04-22 23:57 | 37.47693 | -97.46152 | 7986 ft | 266 kts | 186° |
| 2026-04-22 23:57 | 37.46732 | -97.46221 | 8323 ft | 269 kts | 186° |
| 2026-04-22 23:57 | 37.44850 | -97.46357 | 8946 ft | 276 kts | 186° |
| 2026-04-22 23:58 | 37.42909 | -97.46497 | 9545 ft | 283 kts | 186° |
| 2026-04-22 23:58 | 37.40937 | -97.46639 | 10127 ft | 289 kts | 186° |
| 2026-04-22 23:58 | 37.38879 | -97.46787 | 10560 ft | 301 kts | 186° |
| 2026-04-22 23:58 | 37.36737 | -97.46943 | 10854 ft | 317 kts | 186° |
| 2026-04-22 23:59 | 37.34481 | -97.47106 | 11199 ft | 331 kts | 186° |
| 2026-04-22 23:59 | 37.32161 | -97.47272 | 11768 ft | 337 kts | 186° |
| 2026-04-22 23:59 | 37.29819 | -97.47437 | 12393 ft | 340 kts | 186° |
| 2026-04-22 23:59 | 37.27458 | -97.47605 | 13041 ft | 342 kts | 186° |
| 2026-04-23 00:00 | 37.22686 | -97.47943 | 14343 ft | 345 kts | 186° |
| 2026-04-23 00:00 | 37.20287 | -97.48116 | 14934 ft | 348 kts | 186° |
| 2026-04-23 00:00 | 37.17880 | -97.48286 | 15516 ft | 351 kts | 186° |
| 2026-04-23 00:01 | 37.15416 | -97.48460 | 16107 ft | 353 kts | 186° |
| 2026-04-23 00:01 | 37.12969 | -97.48634 | 16670 ft | 355 kts | 186° |
| 2026-04-23 00:01 | 37.10511 | -97.48807 | 17219 ft | 358 kts | 186° |
| 2026-04-23 00:01 | 37.07993 | -97.48988 | 17768 ft | 360 kts | 186° |
| 2026-04-23 00:02 | 37.05500 | -97.49166 | 18290 ft | 362 kts | 186° |
| 2026-04-23 00:02 | 37.02984 | -97.49345 | 18786 ft | 365 kts | 186° |
| 2026-04-23 00:02 | 37.00456 | -97.49525 | 19263 ft | 368 kts | 186° |
| 2026-04-23 00:02 | 36.97866 | -97.49708 | 19755 ft | 370 kts | 186° |
| 2026-04-23 00:03 | 36.95300 | -97.49889 | 20233 ft | 372 kts | 186° |
| 2026-04-23 00:03 | 36.92706 | -97.50073 | 20690 ft | 375 kts | 186° |
| 2026-04-23 00:03 | 36.90102 | -97.50256 | 21150 ft | 377 kts | 186° |
| 2026-04-23 00:03 | 36.87471 | -97.50442 | 21602 ft | 379 kts | 186° |
| 2026-04-23 00:04 | 36.84814 | -97.50630 | 22034 ft | 382 kts | 186° |
| 2026-04-23 00:04 | 36.82150 | -97.50818 | 22463 ft | 384 kts | 186° |
| 2026-04-23 00:04 | 36.79489 | -97.51006 | 22882 ft | 386 kts | 186° |
| 2026-04-23 00:04 | 36.76815 | -97.51194 | 23283 ft | 389 kts | 186° |
| 2026-04-23 00:05 | 36.74106 | -97.51386 | 23686 ft | 391 kts | 186° |
| 2026-04-23 00:05 | 36.71393 | -97.51577 | 24085 ft | 393 kts | 186° |
| 2026-04-23 00:05 | 36.68666 | -97.51768 | 24484 ft | 394 kts | 186° |
| 2026-04-23 00:05 | 36.65895 | -97.51962 | 24869 ft | 396 kts | 186° |
| 2026-04-23 00:06 | 36.63141 | -97.52157 | 25235 ft | 399 kts | 186° |
| 2026-04-23 00:06 | 36.60381 | -97.52350 | 25597 ft | 400 kts | 186° |
| 2026-04-23 00:06 | 36.57582 | -97.52545 | 25956 ft | 402 kts | 186° |
| 2026-04-23 00:06 | 36.54763 | -97.52743 | 26304 ft | 404 kts | 186° |
| 2026-04-23 00:07 | 36.51977 | -97.52939 | 26631 ft | 406 kts | 186° |
| 2026-04-23 00:07 | 36.49146 | -97.53137 | 26950 ft | 408 kts | 186° |
| 2026-04-23 00:07 | 36.46308 | -97.53335 | 27262 ft | 411 kts | 186° |
| 2026-04-23 00:07 | 36.43443 | -97.53535 | 27567 ft | 413 kts | 186° |
| 2026-04-23 00:08 | 36.40557 | -97.53737 | 27882 ft | 414 kts | 186° |
| 2026-04-23 00:08 | 36.37666 | -97.53938 | 28201 ft | 416 kts | 186° |
| 2026-04-23 00:08 | 36.34768 | -97.54139 | 28500 ft | 418 kts | 186° |
| 2026-04-23 00:08 | 36.31864 | -97.54340 | 28782 ft | 420 kts | 186° |
| 2026-04-23 00:09 | 36.28936 | -97.54544 | 29074 ft | 422 kts | 186° |
| 2026-04-23 00:09 | 36.26037 | -97.54745 | 29367 ft | 424 kts | 186° |
| 2026-04-23 00:09 | 36.23079 | -97.54950 | 29674 ft | 425 kts | 186° |
| 2026-04-23 00:09 | 36.20116 | -97.55156 | 29966 ft | 427 kts | 186° |
| 2026-04-23 00:10 | 36.17150 | -97.55363 | 30234 ft | 429 kts | 186° |
| 2026-04-23 00:10 | 36.14166 | -97.55570 | 30516 ft | 430 kts | 186° |
| 2026-04-23 00:10 | 36.11180 | -97.55776 | 30822 ft | 431 kts | 186° |
| 2026-04-23 00:10 | 36.08181 | -97.55984 | 31099 ft | 433 kts | 186° |
| 2026-04-23 00:11 | 36.05173 | -97.56192 | 31365 ft | 434 kts | 185° |
| 2026-04-23 00:11 | 36.02155 | -97.56400 | 31623 ft | 436 kts | 186° |
| 2026-04-23 00:11 | 35.99120 | -97.56609 | 31884 ft | 437 kts | 186° |
| 2026-04-23 00:11 | 35.96073 | -97.56818 | 32129 ft | 438 kts | 185° |
| 2026-04-23 00:12 | 35.93018 | -97.57030 | 32395 ft | 439 kts | 185° |
| 2026-04-23 00:12 | 35.89977 | -97.57239 | 32728 ft | 438 kts | 185° |
| 2026-04-23 00:12 | 35.86931 | -97.57448 | 33072 ft | 437 kts | 185° |
| 2026-04-23 00:12 | 35.83897 | -97.57656 | 33393 ft | 437 kts | 186° |
| 2026-04-23 00:13 | 35.80874 | -97.57862 | 33717 ft | 436 kts | 186° |
| 2026-04-23 00:13 | 35.77839 | -97.58070 | 34066 ft | 435 kts | 186° |
| 2026-04-23 00:13 | 35.74823 | -97.58276 | 34394 ft | 434 kts | 185° |
| 2026-04-23 00:13 | 35.71803 | -97.58485 | 34724 ft | 433 kts | 185° |
| 2026-04-23 00:14 | 35.68797 | -97.58691 | 35049 ft | 432 kts | 185° |
| 2026-04-23 00:14 | 35.65770 | -97.58897 | 35371 ft | 431 kts | 185° |
| 2026-04-23 00:14 | 35.62768 | -97.59101 | 35623 ft | 431 kts | 185° |
| 2026-04-23 00:14 | 35.59784 | -97.59304 | 35855 ft | 432 kts | 185° |
| 2026-04-23 00:15 | 35.56771 | -97.59509 | 36051 ft | 433 kts | 185° |
| 2026-04-23 00:15 | 35.53763 | -97.59713 | 36231 ft | 434 kts | 185° |
| 2026-04-23 00:15 | 35.50742 | -97.59917 | 36420 ft | 435 kts | 185° |
| 2026-04-23 00:15 | 35.47750 | -97.60121 | 36607 ft | 436 kts | 185° |
| 2026-04-23 00:16 | 35.44671 | -97.60200 | 36776 ft | 438 kts | 179° |
| 2026-04-23 00:16 | 35.41673 | -97.59766 | 36914 ft | 441 kts | 171° |
| 2026-04-23 00:16 | 35.38701 | -97.58794 | 36914 ft | 443 kts | 163° |
| 2026-04-23 00:17 | 35.33205 | -97.55305 | 36914 ft | 449 kts | 146° |
| 2026-04-23 00:17 | 35.28691 | -97.49981 | 36926 ft | 453 kts | 131° |
| 2026-04-23 00:18 | 35.24800 | -97.43965 | 36927 ft | 452 kts | 130° |
| 2026-04-23 00:18 | 35.20940 | -97.37955 | 36925 ft | 452 kts | 130° |
| 2026-04-23 00:19 | 35.17030 | -97.31914 | 36927 ft | 451 kts | 130° |
| 2026-04-23 00:19 | 35.13145 | -97.25939 | 36929 ft | 450 kts | 130° |
| 2026-04-23 00:20 | 35.09254 | -97.19968 | 36933 ft | 450 kts | 130° |
| 2026-04-23 00:20 | 35.05340 | -97.13975 | 36933 ft | 450 kts | 130° |
| 2026-04-23 00:21 | 35.01458 | -97.08045 | 36936 ft | 449 kts | 130° |
| 2026-04-23 00:21 | 34.97564 | -97.02104 | 36939 ft | 449 kts | 130° |
| 2026-04-23 00:22 | 34.93671 | -96.96172 | 36940 ft | 449 kts | 130° |
| 2026-04-23 00:22 | 34.89770 | -96.90239 | 36942 ft | 449 kts | 130° |
| 2026-04-23 00:23 | 34.85905 | -96.84370 | 36948 ft | 449 kts | 130° |
| 2026-04-23 00:23 | 34.82042 | -96.78511 | 36948 ft | 449 kts | 130° |
| 2026-04-23 00:24 | 34.78135 | -96.72596 | 36953 ft | 449 kts | 130° |
| 2026-04-23 00:24 | 34.74209 | -96.66665 | 36954 ft | 449 kts | 130° |
| 2026-04-23 00:25 | 34.70306 | -96.60775 | 36956 ft | 450 kts | 130° |
| 2026-04-23 00:25 | 34.66403 | -96.54894 | 36952 ft | 450 kts | 130° |
| 2026-04-23 00:26 | 34.62483 | -96.48996 | 36952 ft | 449 kts | 130° |
| 2026-04-23 00:26 | 34.58546 | -96.43096 | 36952 ft | 449 kts | 130° |
| 2026-04-23 00:27 | 34.54615 | -96.37215 | 36955 ft | 449 kts | 130° |
| 2026-04-23 00:27 | 34.50680 | -96.31327 | 36956 ft | 449 kts | 130° |
| 2026-04-23 00:28 | 34.46738 | -96.25436 | 36956 ft | 450 kts | 130° |
| 2026-04-23 00:28 | 34.42810 | -96.19571 | 36958 ft | 450 kts | 130° |
| 2026-04-23 00:29 | 34.38854 | -96.13681 | 36962 ft | 450 kts | 130° |
| 2026-04-23 00:29 | 34.34916 | -96.07842 | 36963 ft | 449 kts | 130° |
| 2026-04-23 00:30 | 34.30980 | -96.02016 | 36967 ft | 450 kts | 130° |
| 2026-04-23 00:30 | 34.27030 | -95.96175 | 36962 ft | 449 kts | 130° |
| 2026-04-23 00:31 | 34.23069 | -95.90320 | 36969 ft | 449 kts | 130° |
| 2026-04-23 00:31 | 34.19137 | -95.84518 | 36972 ft | 448 kts | 130° |
| 2026-04-23 00:32 | 34.15169 | -95.78674 | 36971 ft | 448 kts | 130° |
| 2026-04-23 00:32 | 34.11228 | -95.72877 | 36974 ft | 448 kts | 130° |
| 2026-04-23 00:33 | 34.07284 | -95.67085 | 36979 ft | 448 kts | 130° |
| 2026-04-23 00:33 | 34.03329 | -95.61287 | 36981 ft | 447 kts | 130° |
| 2026-04-23 00:34 | 33.99404 | -95.55537 | 36985 ft | 446 kts | 130° |
| 2026-04-23 00:34 | 33.95445 | -95.49751 | 36988 ft | 446 kts | 130° |
| 2026-04-23 00:35 | 33.91514 | -95.44012 | 36985 ft | 446 kts | 130° |
| 2026-04-23 00:35 | 33.87562 | -95.38249 | 36981 ft | 445 kts | 130° |
| 2026-04-23 00:36 | 33.83710 | -95.32643 | 36982 ft | 444 kts | 130° |
| 2026-04-23 00:36 | 33.79787 | -95.26953 | 36979 ft | 443 kts | 130° |
| 2026-04-23 00:37 | 33.75829 | -95.21233 | 36983 ft | 443 kts | 130° |
| 2026-04-23 00:37 | 33.71888 | -95.15536 | 36984 ft | 443 kts | 130° |
| 2026-04-23 00:38 | 33.67938 | -95.09830 | 36987 ft | 443 kts | 130° |
| 2026-04-23 00:38 | 33.64021 | -95.04182 | 36983 ft | 444 kts | 130° |
| 2026-04-23 00:39 | 33.60066 | -94.98484 | 36985 ft | 445 kts | 130° |
| 2026-04-23 00:39 | 33.56110 | -94.92793 | 36986 ft | 445 kts | 130° |
| 2026-04-23 00:40 | 33.52131 | -94.87080 | 36990 ft | 444 kts | 130° |
| 2026-04-23 00:40 | 33.48185 | -94.81423 | 36992 ft | 444 kts | 130° |
| 2026-04-23 00:41 | 33.44224 | -94.75756 | 36993 ft | 442 kts | 130° |
| 2026-04-23 00:41 | 33.40280 | -94.70122 | 36991 ft | 442 kts | 129° |
| 2026-04-23 00:42 | 33.36342 | -94.64500 | 36992 ft | 442 kts | 129° |
| 2026-04-23 00:42 | 33.32396 | -94.58877 | 36995 ft | 442 kts | 129° |
| 2026-04-23 00:43 | 33.28455 | -94.53268 | 36994 ft | 442 kts | 129° |
| 2026-04-23 00:43 | 33.24511 | -94.47664 | 36996 ft | 440 kts | 129° |
| 2026-04-23 00:44 | 33.20569 | -94.42074 | 36998 ft | 441 kts | 129° |
| 2026-04-23 00:44 | 33.16625 | -94.36491 | 37002 ft | 441 kts | 129° |
| 2026-04-23 00:45 | 33.12720 | -94.30970 | 37006 ft | 440 kts | 130° |
| 2026-04-23 00:45 | 33.08771 | -94.25391 | 37012 ft | 440 kts | 130° |
| 2026-04-23 00:46 | 33.04849 | -94.19862 | 37014 ft | 440 kts | 130° |
| 2026-04-23 00:46 | 33.00906 | -94.14314 | 37011 ft | 439 kts | 129° |
| 2026-04-23 00:47 | 32.96959 | -94.08764 | 37010 ft | 439 kts | 129° |
| 2026-04-23 00:47 | 32.93013 | -94.03225 | 37004 ft | 439 kts | 129° |
| 2026-04-23 00:48 | 32.89048 | -93.97664 | 37004 ft | 439 kts | 129° |
| 2026-04-23 00:48 | 32.85068 | -93.92087 | 37007 ft | 439 kts | 129° |
| 2026-04-23 00:49 | 32.81126 | -93.86581 | 37001 ft | 439 kts | 130° |
| 2026-04-23 00:49 | 32.76904 | -93.81345 | 37006 ft | 439 kts | 136° |
| 2026-04-23 00:50 | 32.72237 | -93.76712 | 37007 ft | 441 kts | 142° |
| 2026-04-23 00:50 | 32.67295 | -93.72362 | 37009 ft | 443 kts | 142° |
| 2026-04-23 00:51 | 32.62335 | -93.68004 | 37012 ft | 443 kts | 142° |
| 2026-04-23 00:51 | 32.57394 | -93.63665 | 37020 ft | 444 kts | 142° |
| 2026-04-23 00:52 | 32.52417 | -93.59300 | 37025 ft | 446 kts | 142° |
| 2026-04-23 00:52 | 32.47421 | -93.54927 | 37023 ft | 446 kts | 141° |
| 2026-04-23 00:53 | 32.42427 | -93.50555 | 37018 ft | 448 kts | 142° |
| 2026-04-23 00:53 | 32.37388 | -93.46152 | 37020 ft | 450 kts | 142° |
| 2026-04-23 00:54 | 32.32368 | -93.41774 | 37016 ft | 451 kts | 142° |
| 2026-04-23 00:54 | 32.27313 | -93.37372 | 37011 ft | 450 kts | 142° |
| 2026-04-23 00:55 | 32.22271 | -93.32987 | 37014 ft | 450 kts | 142° |
| 2026-04-23 00:55 | 32.17202 | -93.28584 | 37016 ft | 450 kts | 142° |
| 2026-04-23 00:56 | 32.12171 | -93.24218 | 37013 ft | 451 kts | 142° |
| 2026-04-23 00:56 | 32.07106 | -93.19830 | 37023 ft | 451 kts | 143° |
| 2026-04-23 00:57 | 32.02043 | -93.15453 | 37017 ft | 451 kts | 143° |
| 2026-04-23 00:57 | 31.96993 | -93.11092 | 37011 ft | 450 kts | 143° |
| 2026-04-23 00:58 | 31.91945 | -93.06738 | 37022 ft | 450 kts | 143° |
| 2026-04-23 00:58 | 31.86882 | -93.02380 | 37021 ft | 452 kts | 142° |
| 2026-04-23 00:59 | 31.81950 | -92.98135 | 37028 ft | 451 kts | 142° |
| 2026-04-23 00:59 | 31.76868 | -92.93768 | 37032 ft | 452 kts | 142° |
| 2026-04-23 01:00 | 31.71804 | -92.89425 | 37027 ft | 454 kts | 142° |
| 2026-04-23 01:00 | 31.66688 | -92.85043 | 37028 ft | 453 kts | 142° |
| 2026-04-23 01:01 | 31.61619 | -92.80707 | 37019 ft | 455 kts | 142° |
| 2026-04-23 01:01 | 31.56485 | -92.76317 | 37025 ft | 458 kts | 143° |
| 2026-04-23 01:02 | 31.51289 | -92.71881 | 37030 ft | 460 kts | 143° |
| 2026-04-23 01:02 | 31.46101 | -92.67461 | 37035 ft | 462 kts | 143° |
| 2026-04-23 01:03 | 31.40914 | -92.63042 | 37039 ft | 463 kts | 143° |
| 2026-04-23 01:03 | 31.35690 | -92.58598 | 37039 ft | 464 kts | 144° |
| 2026-04-23 01:04 | 31.30514 | -92.54127 | 37048 ft | 464 kts | 141° |
| 2026-04-23 01:04 | 31.23494 | -92.46354 | 36518 ft | 463 kts | 131° |
| 2026-04-23 01:05 | 31.21450 | -92.43479 | 36254 ft | 460 kts | 128° |
| 2026-04-23 01:05 | 31.19537 | -92.40498 | 35991 ft | 457 kts | 126° |
| 2026-04-23 01:05 | 31.17664 | -92.37515 | 35726 ft | 457 kts | 126° |
| 2026-04-23 01:05 | 31.15797 | -92.34539 | 35461 ft | 457 kts | 127° |
| 2026-04-23 01:06 | 31.13892 | -92.31509 | 35188 ft | 457 kts | 127° |
| 2026-04-23 01:06 | 31.12078 | -92.28635 | 34933 ft | 458 kts | 127° |
| 2026-04-23 01:06 | 31.10191 | -92.25649 | 34627 ft | 459 kts | 127° |
| 2026-04-23 01:06 | 31.08294 | -92.22653 | 34172 ft | 460 kts | 127° |
| 2026-04-23 01:07 | 31.06381 | -92.19636 | 33586 ft | 461 kts | 127° |
| 2026-04-23 01:07 | 31.04487 | -92.16653 | 32945 ft | 462 kts | 127° |
| 2026-04-23 01:07 | 31.02585 | -92.13663 | 32287 ft | 462 kts | 127° |
| 2026-04-23 01:07 | 31.00665 | -92.10645 | 31735 ft | 459 kts | 127° |
| 2026-04-23 01:08 | 30.98793 | -92.07701 | 31322 ft | 454 kts | 127° |
| 2026-04-23 01:08 | 30.96927 | -92.04770 | 30867 ft | 451 kts | 127° |
| 2026-04-23 01:08 | 30.95067 | -92.01850 | 30421 ft | 447 kts | 127° |
| 2026-04-23 01:08 | 30.93209 | -91.98935 | 29965 ft | 443 kts | 127° |
| 2026-04-23 01:09 | 30.91391 | -91.96085 | 29512 ft | 440 kts | 126° |
| 2026-04-23 01:09 | 30.89579 | -91.93246 | 29051 ft | 436 kts | 126° |
| 2026-04-23 01:09 | 30.87763 | -91.90404 | 28584 ft | 433 kts | 126° |
| 2026-04-23 01:09 | 30.85980 | -91.87611 | 28117 ft | 429 kts | 126° |
| 2026-04-23 01:10 | 30.84204 | -91.84836 | 27671 ft | 425 kts | 126° |
| 2026-04-23 01:10 | 30.82445 | -91.82086 | 27216 ft | 421 kts | 126° |
| 2026-04-23 01:10 | 30.80709 | -91.79375 | 26756 ft | 418 kts | 126° |
| 2026-04-23 01:10 | 30.78974 | -91.76668 | 26306 ft | 415 kts | 126° |
| 2026-04-23 01:11 | 30.77261 | -91.73997 | 25869 ft | 411 kts | 126° |
| 2026-04-23 01:11 | 30.75580 | -91.71377 | 25406 ft | 408 kts | 126° |
| 2026-04-23 01:11 | 30.73885 | -91.68735 | 24959 ft | 405 kts | 126° |
| 2026-04-23 01:11 | 30.72209 | -91.66129 | 24520 ft | 402 kts | 126° |
| 2026-04-23 01:12 | 30.70546 | -91.63545 | 24066 ft | 399 kts | 126° |
| 2026-04-23 01:12 | 30.68878 | -91.60953 | 23623 ft | 396 kts | 126° |
| 2026-04-23 01:12 | 30.67246 | -91.58419 | 23183 ft | 393 kts | 126° |
| 2026-04-23 01:12 | 30.65620 | -91.55894 | 22720 ft | 392 kts | 126° |
| 2026-04-23 01:13 | 30.63990 | -91.53365 | 22248 ft | 390 kts | 126° |
| 2026-04-23 01:13 | 30.62373 | -91.50855 | 21779 ft | 388 kts | 126° |
| 2026-04-23 01:13 | 30.60757 | -91.48350 | 21302 ft | 387 kts | 126° |
| 2026-04-23 01:13 | 30.59137 | -91.45839 | 20806 ft | 386 kts | 126° |
| 2026-04-23 01:14 | 30.57550 | -91.43382 | 20328 ft | 385 kts | 126° |
| 2026-04-23 01:14 | 30.55938 | -91.40887 | 19872 ft | 383 kts | 126° |
| 2026-04-23 01:14 | 30.54346 | -91.38426 | 19443 ft | 380 kts | 126° |
| 2026-04-23 01:14 | 30.52766 | -91.35986 | 18989 ft | 379 kts | 126° |
| 2026-04-23 01:15 | 30.51187 | -91.33547 | 18519 ft | 378 kts | 126° |
| 2026-04-23 01:15 | 30.49564 | -91.31104 | 18041 ft | 377 kts | 129° |
| 2026-04-23 01:15 | 30.47769 | -91.28857 | 17554 ft | 376 kts | 136° |
| 2026-04-23 01:15 | 30.45814 | -91.26868 | 17103 ft | 374 kts | 141° |
| 2026-04-23 01:16 | 30.43798 | -91.24985 | 16647 ft | 372 kts | 141° |
| 2026-04-23 01:16 | 30.41777 | -91.23122 | 16228 ft | 369 kts | 141° |
| 2026-04-23 01:16 | 30.39797 | -91.21296 | 15791 ft | 368 kts | 141° |
| 2026-04-23 01:16 | 30.37789 | -91.19441 | 15315 ft | 366 kts | 141° |
| 2026-04-23 01:17 | 30.35804 | -91.17600 | 14873 ft | 364 kts | 141° |
| 2026-04-23 01:17 | 30.33871 | -91.15807 | 14480 ft | 352 kts | 141° |
| 2026-04-23 01:17 | 30.31989 | -91.14059 | 14006 ft | 337 kts | 141° |
| 2026-04-23 01:17 | 30.30205 | -91.12403 | 13590 ft | 324 kts | 141° |
| 2026-04-23 01:18 | 30.28462 | -91.10784 | 13185 ft | 320 kts | 141° |
| 2026-04-23 01:18 | 30.26737 | -91.09184 | 12800 ft | 319 kts | 141° |
| 2026-04-23 01:18 | 30.24999 | -91.07572 | 12410 ft | 317 kts | 141° |
| 2026-04-23 01:18 | 30.23291 | -91.05991 | 12119 ft | 312 kts | 141° |
| 2026-04-23 01:19 | 30.21606 | -91.04430 | 11773 ft | 311 kts | 141° |
| 2026-04-23 01:19 | 30.19912 | -91.02861 | 11451 ft | 309 kts | 141° |
| 2026-04-23 01:19 | 30.18250 | -91.01322 | 11287 ft | 307 kts | 141° |
| 2026-04-23 01:19 | 30.16594 | -90.99789 | 11219 ft | 307 kts | 141° |
| 2026-04-23 01:20 | 30.14913 | -90.98236 | 11164 ft | 307 kts | 141° |
| 2026-04-23 01:20 | 30.13236 | -90.96687 | 11117 ft | 307 kts | 141° |
| 2026-04-23 01:20 | 30.11748 | -90.94971 | 11026 ft | 306 kts | 121° |
| 2026-04-23 01:20 | 30.11032 | -90.92674 | 10682 ft | 301 kts | 96° |
| 2026-04-23 01:21 | 30.10903 | -90.90288 | 10288 ft | 298 kts | 90° |
| 2026-04-23 01:21 | 30.10865 | -90.87920 | 9893 ft | 296 kts | 90° |
| 2026-04-23 01:21 | 30.10788 | -90.85557 | 9523 ft | 293 kts | 92° |
| 2026-04-23 01:21 | 30.10663 | -90.83224 | 9165 ft | 291 kts | 94° |
| 2026-04-23 01:22 | 30.10505 | -90.80896 | 8784 ft | 288 kts | 94° |
| 2026-04-23 01:22 | 30.10333 | -90.78613 | 8491 ft | 286 kts | 95° |
| 2026-04-23 01:22 | 30.10152 | -90.76314 | 8281 ft | 284 kts | 95° |
| 2026-04-23 01:22 | 30.09973 | -90.74071 | 7947 ft | 281 kts | 95° |
| 2026-04-23 01:23 | 30.09798 | -90.71869 | 7502 ft | 275 kts | 95° |
| 2026-04-23 01:23 | 30.09543 | -90.69694 | 7046 ft | 272 kts | 102° |
| 2026-04-23 01:23 | 30.09096 | -90.67606 | 6700 ft | 266 kts | 105° |
| 2026-04-23 01:23 | 30.08605 | -90.65552 | 6443 ft | 264 kts | 106° |
| 2026-04-23 01:24 | 30.08112 | -90.63502 | 6180 ft | 262 kts | 106° |
| 2026-04-23 01:24 | 30.07639 | -90.61528 | 5808 ft | 253 kts | 106° |
| 2026-04-23 01:24 | 30.07187 | -90.59609 | 5377 ft | 244 kts | 105° |
| 2026-04-23 01:24 | 30.06780 | -90.57745 | 5005 ft | 238 kts | 105° |
| 2026-04-23 01:25 | 30.06374 | -90.55925 | 4620 ft | 229 kts | 106° |
| 2026-04-23 01:25 | 30.05974 | -90.54198 | 4252 ft | 220 kts | 107° |
| 2026-04-23 01:25 | 30.05571 | -90.52512 | 3869 ft | 213 kts | 107° |
| 2026-04-23 01:25 | 30.05185 | -90.50916 | 3622 ft | 202 kts | 107° |
| 2026-04-23 01:26 | 30.04813 | -90.49391 | 3425 ft | 190 kts | 108° |
| 2026-04-23 01:26 | 30.04465 | -90.47965 | 3163 ft | 177 kts | 108° |
| 2026-04-23 01:26 | 30.04134 | -90.46613 | 2983 ft | 176 kts | 108° |
| 2026-04-23 01:26 | 30.03802 | -90.45254 | 2752 ft | 175 kts | 108° |
| 2026-04-23 01:27 | 30.03477 | -90.43919 | 2529 ft | 174 kts | 108° |
| 2026-04-23 01:27 | 30.03148 | -90.42569 | 2310 ft | 173 kts | 108° |
| 2026-04-23 01:27 | 30.02823 | -90.41230 | 2096 ft | 172 kts | 108° |
| 2026-04-23 01:27 | 30.02504 | -90.39909 | 1887 ft | 171 kts | 108° |
| 2026-04-23 01:28 | 30.02182 | -90.38583 | 1686 ft | 171 kts | 109° |
| 2026-04-23 01:28 | 30.01867 | -90.37279 | 1499 ft | 165 kts | 108° |
| 2026-04-23 01:28 | 30.01574 | -90.36063 | 1281 ft | 150 kts | 108° |
| 2026-04-23 01:28 | 30.01296 | -90.34918 | 1108 ft | 145 kts | 109° |
| 2026-04-23 01:29 | 30.01037 | -90.33845 | 921 ft | 134 kts | 109° |
| 2026-04-23 01:29 | 30.00786 | -90.32812 | 772 ft | 133 kts | 109° |
| 2026-04-23 01:29 | 30.00540 | -90.31796 | 622 ft | 132 kts | 108° |
| 2026-04-23 01:29 | 30.00295 | -90.30776 | 469 ft | 132 kts | 108° |
| 2026-04-23 01:30 | 30.00042 | -90.29747 | 306 ft | 131 kts | 108° |
| 2026-04-23 01:30 | 29.99799 | -90.28741 | 147 ft | 129 kts | 108° |
| 2026-04-23 01:30 | 29.99560 | -90.27754 | 21 ft | 127 kts | 108° |
| 2026-04-23 01:30 | 29.99353 | -90.26884 | 12 ft | 91 kts | 105° |
| 2026-04-23 01:31 | 29.99224 | -90.26361 | 12 ft | 51 kts | 105° |
| 2026-04-23 01:31 | 29.99134 | -90.25988 | 12 ft | 45 kts | 104° |
| 2026-04-23 01:31 | 29.99072 | -90.25697 | 12 ft | 24 kts | 81° |
| 2026-04-23 01:31 | 29.99152 | -90.25629 | 12 ft | 0 kts | 15° |
| 2026-04-23 01:32 | 29.99162 | -90.25626 | 12 ft | 2 kts | 15° |
| 2026-04-23 01:32 | 29.99183 | -90.25620 | 12 ft | 3 kts | 18° |
| 2026-04-23 01:32 | 29.99204 | -90.25594 | 12 ft | 6 kts | 70° |
| 2026-04-23 01:33 | 29.99223 | -90.25533 | 12 ft | 9 kts | 36° |
| 2026-04-23 01:33 | 29.99284 | -90.25517 | 12 ft | 8 kts | 5° |
| 2026-04-23 01:33 | 29.99344 | -90.25509 | 12 ft | 7 kts | 22° |
| 2026-04-23 01:33 | 29.99360 | -90.25461 | 12 ft | 3 kts | 92° |
| 2026-04-23 01:34 | 29.99359 | -90.25443 | 12 ft | 0 kts | 92° |